Time;durP1;ratioP1;P1;durP2;ratioP2;P2;SDS_P1;SDS_P2;PMS_P1;PMS_P2;Temp;Humidity;BMP_temperature;BMP_pressure;BME280_temperature;BME280_humidity;BME280_pressure;Samples;Min_cycle;Max_cycle;Signal;HPM_P1;HPM_P2
2022/09/16 00:00:58;;;;;;;;;;;;;;;;;;5018389;28;20245;-27
2022/09/16 00:03:24;;;;;;;;;;;;;;;;;;5017924;28;19925;-27
2022/09/16 00:05:50;;;;;;;;;;;;;;;;;;5018063;28;19916;-27
2022/09/16 00:08:16;;;;;;;;;;;;;;;;;;5018561;28;19948;-27
2022/09/16 00:10:42;;;;;;;;;;;;;;;;;;5017977;28;19910;-27
2022/09/16 00:13:09;;;;;;;;;;;;;;;;;;5017797;28;19951;-27
2022/09/16 00:15:35;;;;;;;;;;;;;;;;;;5017933;28;20245;-27
2022/09/16 00:18:01;;;;;;;;;;;;;;;;;;5017862;28;19960;-27
2022/09/16 00:20:27;;;;;;;;;;;;;;;;;;5018053;28;19968;-26
2022/09/16 00:22:53;;;;;;;;;;;;;;;;;;5017663;28;19909;-26
2022/09/16 00:25:19;;;;;;;;;;;;;;;;;;5018278;28;19913;-27
2022/09/16 00:27:45;;;;;;;;;;;;;;;;;;5017677;28;19913;-26
2022/09/16 00:30:11;;;;;;;;;;;;;;;;;;5017573;28;19914;-27
2022/09/16 00:32:37;;;;;;;;;;;;;;;;;;5017373;28;19913;-27
2022/09/16 00:35:03;;;;;;;;;;;;;;;;;;5017805;28;19948;-27
2022/09/16 00:37:30;;;;;;;;;;;;;;;;;;5017452;28;19925;-27
2022/09/16 00:39:56;;;;;;;;;;;;;;;;;;5017693;28;19921;-27
2022/09/16 00:42:22;;;;;;;;;;;;;;;;;;5017346;28;20366;-27
2022/09/16 00:44:48;;;;;;;;;;;;;;;;;;5017325;28;19913;-27
2022/09/16 00:47:14;;;;;;;;;;;;;;;;;;5017304;28;19996;-27
2022/09/16 00:49:40;;;;;;;;;;;;;;;;;;5017298;28;19968;-27
2022/09/16 00:52:06;;;;;;;;;;;;;;;;;;5017159;28;20003;-27
2022/09/16 00:54:32;;;;;;;;;;;;;;;;;;5017640;28;20012;-27
2022/09/16 00:56:58;;;;;;;;;;;;;;;;;;5017676;28;20302;-27
2022/09/16 00:59:25;;;;;;;;;;;;;;;;;;5017329;28;19924;-27
2022/09/16 01:01:51;;;;;;;;;;;;;;;;;;5017012;28;20288;-27
2022/09/16 01:04:17;;;;;;;;;;;;;;;;;;5016852;28;19921;-27
2022/09/16 01:06:43;;;;;;;;;;;;;;;;;;5016759;28;19913;-27
2022/09/16 01:09:09;;;;;;;;;;;;;;;;;;5015926;28;19936;-27
2022/09/16 01:11:35;;;;;;;;;;;;;;;;;;5017393;28;20008;-27
2022/09/16 01:14:52;;;;;;;;;;;;;;;;;;5015729;28;19936;-27
2022/09/16 01:16:47;;;;;;;;;;;;;;;;;;5016626;28;19925;-27
2022/09/16 01:19:14;;;;;;;;;;;;;;;;;;5016777;28;20260;-27
2022/09/16 01:21:41;;;;;;;;;;;;;;;;;;5016898;28;19913;-27
2022/09/16 01:24:07;;;;;;;;;;;;;;;;;;5016964;28;19995;-27
2022/09/16 01:26:33;;;;;;;;;;;;;;;;;;5017324;28;19914;-27
2022/09/16 01:28:59;;;;;;;;;;;;;;;;;;5017060;28;19924;-27
2022/09/16 01:31:24;;;;;;;;;;;;;;;;;;5016721;28;19937;-27
2022/09/16 01:33:50;;;;;;;;;;;;;;;;;;5016552;28;20352;-27
2022/09/16 01:36:16;;;;;;;;;;;;;;;;;;5016746;28;20333;-27
2022/09/16 01:38:42;;;;;;;;;;;;;;;;;;5016642;28;19913;-27
2022/09/16 01:41:08;;;;;;;;;;;;;;;;;;5016579;28;19940;-27
2022/09/16 01:43:34;;;;;;;;;;;;;;;;;;5016204;28;19914;-27
2022/09/16 01:46:00;;;;;;;;;;;;;;;;;;5016288;28;19916;-27
2022/09/16 01:48:27;;;;;;;;;;;;;;;;;;5016219;28;20356;-27
2022/09/16 01:50:53;;;;;;;;;;;;;;;;;;5016983;28;19919;-27
2022/09/16 01:53:19;;;;;;;;;;;;;;;;;;5016032;28;20321;-27
2022/09/16 01:55:45;;;;;;;;;;;;;;;;;;5016334;28;19913;-27
2022/09/16 01:58:11;;;;;;;;;;;;;;;;;;5016022;28;19914;-27
2022/09/16 02:00:37;;;;;;;;;;;;;;;;;;5016522;28;19914;-27
2022/09/16 02:03:03;;;;;;;;;;;;;;;;;;5015916;28;20007;-27
2022/09/16 02:05:29;;;;;;;;;;;;;;;;;;5015930;28;20349;-27
2022/09/16 02:07:55;;;;;;;;;;;;;;;;;;5015834;28;19913;-27
2022/09/16 02:10:20;;;;;;;;;;;;;;;;;;5015817;28;19967;-27
2022/09/16 02:12:46;;;;;;;;;;;;;;;;;;5015662;28;19924;-27
2022/09/16 02:15:13;;;;;;;;;;;;;;;;;;5016055;28;20304;-27
2022/09/16 02:17:38;;;;;;;;;;;;;;;;;;5015977;28;20008;-27
2022/09/16 02:20:05;;;;;;;;;;;;;;;;;;5015530;28;20335;-27
2022/09/16 02:22:31;;;;;;;;;;;;;;;;;;5015597;28;19909;-27
2022/09/16 02:24:57;;;;;;;;;;;;;;;;;;5015631;28;19971;-27
2022/09/16 02:27:23;;;;;;;;;;;;;;;;;;5015569;28;19964;-27
2022/09/16 02:29:49;;;;;;;;;;;;;;;;;;5015528;28;19949;-27
2022/09/16 02:32:15;;;;;;;;;;;;;;;;;;5015433;28;19916;-27
2022/09/16 02:34:41;;;;;;;;;;;;;;;;;;5015528;28;19913;-27
2022/09/16 02:37:07;;;;;;;;;;;;;;;;;;5015691;28;19924;-27
2022/09/16 02:39:33;;;;;;;;;;;;;;;;;;5015749;28;19924;-27
2022/09/16 02:41:59;;;;;;;;;;;;;;;;;;5015570;28;19914;-26
2022/09/16 02:44:25;;;;;;;;;;;;;;;;;;5016236;28;19910;-27
2022/09/16 02:46:51;;;;;;;;;;;;;;;;;;5015361;28;19924;-27
2022/09/16 02:49:17;;;;;;;;;;;;;;;;;;5015280;28;19909;-26
2022/09/16 02:51:43;;;;;;;;;;;;;;;;;;5015193;28;19913;-27
2022/09/16 02:54:09;;;;;;;;;;;;;;;;;;5015760;28;19929;-26
2022/09/16 02:56:35;;;;;;;;;;;;;;;;;;5015853;28;19910;-27
2022/09/16 02:59:01;;;;;;;;;;;;;;;;;;5015231;28;20229;-26
2022/09/16 03:01:27;;;;;;;;;;;;;;;;;;5015510;28;19916;-27
2022/09/16 03:03:53;;;;;;;;;;;;;;;;;;5014868;28;19921;-27
2022/09/16 03:06:19;;;;;;;;;;;;;;;;;;5015128;28;19920;-26
2022/09/16 03:08:45;;;;;;;;;;;;;;;;;;5015409;28;19909;-26
2022/09/16 03:11:11;;;;;;;;;;;;;;;;;;5015372;28;20276;-26
2022/09/16 03:13:37;;;;;;;;;;;;;;;;;;5015261;28;19920;-26
2022/09/16 03:16:03;;;;;;;;;;;;;;;;;;5015089;28;19913;-26
2022/09/16 03:18:29;;;;;;;;;;;;;;;;;;5015100;28;19917;-27
2022/09/16 03:20:55;;;;;;;;;;;;;;;;;;5015323;28;19914;-27
2022/09/16 03:23:21;;;;;;;;;;;;;;;;;;5014919;28;19920;-27
2022/09/16 03:25:47;;;;;;;;;;;;;;;;;;5015070;28;19917;-27
2022/09/16 03:28:14;;;;;;;;;;;;;;;;;;5015248;28;20021;-27
2022/09/16 03:30:40;;;;;;;;;;;;;;;;;;5015312;28;19979;-27
2022/09/16 03:33:06;;;;;;;;;;;;;;;;;;5018642;28;20414;-27
2022/09/16 03:35:32;;;;;;;;;;;;;;;;;;5018960;28;19937;-27
2022/09/16 03:37:58;;;;;;;;;;;;;;;;;;5019471;28;19918;-27
2022/09/16 03:40:25;;;;;;;;;;;;;;;;;;5018838;28;19913;-27
2022/09/16 03:42:51;;;;;;;;;;;;;;;;;;5018454;28;19910;-27
2022/09/16 03:45:17;;;;;;;;;;;;;;;;;;5018487;28;19914;-27
2022/09/16 03:47:43;;;;;;;;;;;;;;;;;;5018687;28;19980;-27
2022/09/16 03:50:09;;;;;;;;;;;;;;;;;;5018613;28;20402;-27
2022/09/16 03:52:35;;;;;;;;;;;;;;;;;;5018215;28;19909;-27
2022/09/16 03:55:01;;;;;;;;;;;;;;;;;;5018285;28;19940;-27
2022/09/16 03:57:29;;;;;;;;;;;;;;;;;;5018517;28;19909;-27
2022/09/16 03:59:55;;;;;;;;;;;;;;;;;;5018467;28;19914;-27
2022/09/16 04:02:21;;;;;;;;;;;;;;;;;;5018309;28;19924;-27
2022/09/16 04:04:47;;;;;;;;;;;;;;;;;;5017976;28;19913;-27
2022/09/16 04:07:13;;;;;;;;;;;;;;;;;;5018365;28;19929;-27
2022/09/16 04:09:39;;;;;;;;;;;;;;;;;;5017911;28;20323;-28
2022/09/16 04:12:06;;;;;;;;;;;;;;;;;;5017750;28;19945;-27
2022/09/16 04:14:32;;;;;;;;;;;;;;;;;;5017491;28;19917;-27
2022/09/16 04:16:58;;;;;;;;;;;;;;;;;;5018052;28;19928;-27
2022/09/16 04:19:24;;;;;;;;;;;;;;;;;;5017766;28;19943;-27
2022/09/16 04:21:50;;;;;;;;;;;;;;;;;;5017440;28;19916;-27
2022/09/16 04:24:16;;;;;;;;;;;;;;;;;;5017444;28;19959;-27
2022/09/16 04:26:42;;;;;;;;;;;;;;;;;;5016469;28;20001;-27
2022/09/16 04:29:08;;;;;;;;;;;;;;;;;;5017368;28;19918;-27
2022/09/16 04:31:34;;;;;;;;;;;;;;;;;;5017148;28;19914;-27
2022/09/16 04:34:00;;;;;;;;;;;;;;;;;;5017115;28;19913;-27
2022/09/16 04:36:26;;;;;;;;;;;;;;;;;;5017295;28;19914;-27
2022/09/16 04:38:52;;;;;;;;;;;;;;;;;;5017506;28;19960;-27
2022/09/16 04:41:18;;;;;;;;;;;;;;;;;;5017061;28;19918;-27
2022/09/16 04:43:44;;;;;;;;;;;;;;;;;;5016710;28;19920;-27
2022/09/16 04:46:10;;;;;;;;;;;;;;;;;;5017382;28;19996;-27
2022/09/16 04:48:36;;;;;;;;;;;;;;;;;;5017257;28;20363;-26
2022/09/16 04:51:02;;;;;;;;;;;;;;;;;;5016987;28;19909;-27
2022/09/16 04:53:28;;;;;;;;;;;;;;;;;;5016751;28;19929;-27
2022/09/16 04:55:54;;;;;;;;;;;;;;;;;;5016800;28;19960;-27
2022/09/16 04:58:20;;;;;;;;;;;;;;;;;;5016996;28;20001;-27
2022/09/16 05:00:46;;;;;;;;;;;;;;;;;;5017057;28;19941;-28
2022/09/16 05:03:12;;;;;;;;;;;;;;;;;;5016375;28;20234;-26
2022/09/16 05:05:38;;;;;;;;;;;;;;;;;;5017412;28;19931;-27
2022/09/16 05:08:04;;;;;;;;;;;;;;;;;;5015742;28;19914;-26
2022/09/16 05:10:30;;;;;;;;;;;;;;;;;;5016885;28;19914;-26
2022/09/16 05:12:56;;;;;;;;;;;;;;;;;;5016290;28;19917;-27
2022/09/16 05:15:22;;;;;;;;;;;;;;;;;;5016728;28;19925;-27
2022/09/16 05:17:49;;;;;;;;;;;;;;;;;;5016487;28;19945;-28
2022/09/16 05:20:16;;;;;;;;;;;;;;;;;;5016378;28;19914;-27
2022/09/16 05:22:42;;;;;;;;;;;;;;;;;;5016557;28;19913;-27
2022/09/16 05:25:08;;;;;;;;;;;;;;;;;;5016309;28;20386;-27
2022/09/16 05:27:34;;;;;;;;;;;;;;;;;;5016530;28;19919;-27
2022/09/16 05:30:00;;;;;;;;;;;;;;;;;;5016472;28;19909;-28
2022/09/16 05:32:26;;;;;;;;;;;;;;;;;;5016025;28;20316;-28
2022/09/16 05:34:52;;;;;;;;;;;;;;;;;;5016039;28;19910;-28
2022/09/16 05:37:18;;;;;;;;;;;;;;;;;;5016335;28;20008;-28
2022/09/16 05:39:44;;;;;;;;;;;;;;;;;;5016289;28;20368;-28
2022/09/16 05:42:10;;;;;;;;;;;;;;;;;;5016128;28;19914;-27
2022/09/16 05:44:36;;;;;;;;;;;;;;;;;;5016244;28;19909;-26
2022/09/16 05:47:02;;;;;;;;;;;;;;;;;;5016319;28;19914;-26
2022/09/16 05:49:28;;;;;;;;;;;;;;;;;;5015802;28;19928;-26
2022/09/16 05:51:54;;;;;;;;;;;;;;;;;;5015693;28;20256;-26
2022/09/16 05:54:22;;;;;;;;;;;;;;;;;;5014926;28;19921;-27
2022/09/16 05:56:48;;;;;;;;;;;;;;;;;;5015996;28;20356;-26
2022/09/16 05:59:14;;;;;;;;;;;;;;;;;;5016037;28;19955;-27
2022/09/16 06:01:40;;;;;;;;;;;;;;;;;;5015868;28;20353;-27
2022/09/16 06:04:06;;;;;;;;;;;;;;;;;;5015376;28;19928;-26
2022/09/16 06:06:32;;;;;;;;;;;;;;;;;;5015824;28;20256;-27
2022/09/16 06:08:58;;;;;;;;;;;;;;;;;;5015735;28;19918;-27
2022/09/16 06:11:24;;;;;;;;;;;;;;;;;;5015365;28;19960;-27
2022/09/16 06:13:50;;;;;;;;;;;;;;;;;;5015810;28;19928;-27
2022/09/16 06:16:16;;;;;;;;;;;;;;;;;;5015368;28;19917;-27
2022/09/16 06:18:42;;;;;;;;;;;;;;;;;;5015392;28;19988;-27
2022/09/16 06:21:08;;;;;;;;;;;;;;;;;;5015932;28;20014;-27
2022/09/16 06:23:34;;;;;;;;;;;;;;;;;;5015364;28;19909;-27
2022/09/16 06:26:00;;;;;;;;;;;;;;;;;;5015844;28;20009;-27
2022/09/16 06:28:26;;;;;;;;;;;;;;;;;;5015236;28;19918;-27
2022/09/16 06:30:52;;;;;;;;;;;;;;;;;;5015505;28;19913;-26
2022/09/16 06:33:18;;;;;;;;;;;;;;;;;;5015370;28;20221;-27
2022/09/16 06:35:44;;;;;;;;;;;;;;;;;;5015508;28;20248;-26
2022/09/16 06:38:10;;;;;;;;;;;;;;;;;;5015125;28;19920;-27
2022/09/16 06:40:36;;;;;;;;;;;;;;;;;;5015165;28;19949;-27
2022/09/16 06:43:02;;;;;;;;;;;;;;;;;;5015594;28;20420;-27
2022/09/16 06:45:28;;;;;;;;;;;;;;;;;;5015079;28;19917;-27
2022/09/16 06:47:54;;;;;;;;;;;;;;;;;;5014996;28;19914;-27
2022/09/16 06:50:20;;;;;;;;;;;;;;;;;;5015308;28;19910;-27
2022/09/16 06:52:46;;;;;;;;;;;;;;;;;;5015127;28;19959;-27
2022/09/16 06:55:12;;;;;;;;;;;;;;;;;;5014923;28;19909;-27
2022/09/16 06:57:38;;;;;;;;;;;;;;;;;;5015015;28;19957;-27
2022/09/16 07:00:04;;;;;;;;;;;;;;;;;;5015223;28;20301;-26
2022/09/16 07:02:30;;;;;;;;;;;;;;;;;;5014891;28;20028;-27
2022/09/16 07:04:57;;;;;;;;;;;;;;;;;;5015695;28;20332;-27
2022/09/16 07:07:23;;;;;;;;;;;;;;;;;;5019650;28;20013;-27
2022/09/16 07:09:49;;;;;;;;;;;;;;;;;;5018983;28;19937;-27
2022/09/16 07:12:15;;;;;;;;;;;;;;;;;;5018728;28;19909;-27
2022/09/16 07:14:41;;;;;;;;;;;;;;;;;;5018682;28;19924;-27
2022/09/16 07:17:07;;;;;;;;;;;;;;;;;;5018613;28;19910;-27
2022/09/16 07:19:33;;;;;;;;;;;;;;;;;;5018942;28;19913;-27
2022/09/16 07:21:59;;;;;;;;;;;;;;;;;;5018799;28;20398;-27
2022/09/16 07:24:25;;;;;;;;;;;;;;;;;;5019046;28;19920;-27
2022/09/16 07:26:51;;;;;;;;;;;;;;;;;;5018593;28;19909;-27
2022/09/16 07:29:19;;;;;;;;;;;;;;;;;;5018448;28;19914;-26
2022/09/16 07:31:45;;;;;;;;;;;;;;;;;;5018330;28;19982;-27
2022/09/16 07:34:11;;;;;;;;;;;;;;;;;;5018362;28;19968;-26
2022/09/16 07:36:37;;;;;;;;;;;;;;;;;;5018296;28;19914;-27
2022/09/16 07:39:03;;;;;;;;;;;;;;;;;;5018230;28;20353;-27
2022/09/16 07:41:29;;;;;;;;;;;;;;;;;;5018201;28;19924;-27
2022/09/16 07:43:57;;;;;;;;;;;;;;;;;;5018047;28;20016;-27
2022/09/16 07:46:24;;;;;;;;;;;;;;;;;;5018493;28;20264;-27
2022/09/16 07:48:50;;;;;;;;;;;;;;;;;;5019218;28;19924;-27
2022/09/16 07:51:16;;;;;;;;;;;;;;;;;;5018310;28;19923;-27
2022/09/16 07:53:42;;;;;;;;;;;;;;;;;;5018151;28;20248;-27
2022/09/16 07:56:08;;;;;;;;;;;;;;;;;;5017985;28;19987;-27
2022/09/16 07:58:34;;;;;;;;;;;;;;;;;;5017918;28;19915;-27
2022/09/16 08:01:01;;;;;;;;;;;;;;;;;;5017817;28;19920;-27
2022/09/16 08:03:27;;;;;;;;;;;;;;;;;;5017578;28;19932;-26
2022/09/16 08:05:53;;;;;;;;;;;;;;;;;;5017853;28;19914;-27
2022/09/16 08:08:19;;;;;;;;;;;;;;;;;;5018066;28;20009;-27
2022/09/16 08:10:45;;;;;;;;;;;;;;;;;;5017764;28;20344;-27
2022/09/16 08:13:11;;;;;;;;;;;;;;;;;;5017481;28;19921;-27
2022/09/16 08:15:37;;;;;;;;;;;;;;;;;;5018147;28;19971;-27
2022/09/16 08:18:04;;;;;;;;;;;;;;;;;;5016903;28;19916;-27
2022/09/16 08:20:30;;;;;;;;;;;;;;;;;;5017728;28;20297;-27
2022/09/16 08:22:56;;;;;;;;;;;;;;;;;;5017172;28;19945;-27
2022/09/16 08:25:21;;;;;;;;;;;;;;;;;;5017709;28;19913;-27
2022/09/16 08:27:47;;;;;;;;;;;;;;;;;;5017307;28;19976;-27
2022/09/16 08:30:13;;;;;;;;;;;;;;;;;;5017311;28;19913;-28
2022/09/16 08:32:39;;;;;;;;;;;;;;;;;;5017788;28;19916;-27
2022/09/16 08:35:05;;;;;;;;;;;;;;;;;;5017558;28;20342;-28
2022/09/16 08:37:31;;;;;;;;;;;;;;;;;;5017194;28;19915;-27
2022/09/16 08:39:57;;;;;;;;;;;;;;;;;;5017137;28;19920;-27
2022/09/16 08:42:23;;;;;;;;;;;;;;;;;;5017685;28;19918;-27
2022/09/16 08:44:49;;;;;;;;;;;;;;;;;;5017520;28;19913;-27
2022/09/16 08:47:15;;;;;;;;;;;;;;;;;;5017088;28;19913;-27
2022/09/16 08:49:41;;;;;;;;;;;;;;;;;;5017095;28;19924;-27
2022/09/16 08:52:07;;;;;;;;;;;;;;;;;;5017370;28;19964;-27
2022/09/16 08:54:33;;;;;;;;;;;;;;;;;;5017224;28;19917;-27
2022/09/16 08:56:59;;;;;;;;;;;;;;;;;;5016873;28;19937;-27
2022/09/16 08:59:25;;;;;;;;;;;;;;;;;;5017087;28;19917;-27
2022/09/16 09:01:51;;;;;;;;;;;;;;;;;;5016689;28;19913;-27
2022/09/16 09:04:17;;;;;;;;;;;;;;;;;;5016469;28;19952;-27
2022/09/16 09:06:43;;;;;;;;;;;;;;;;;;5016717;28;19992;-27
2022/09/16 09:09:09;;;;;;;;;;;;;;;;;;5017193;28;20335;-27
2022/09/16 09:11:35;;;;;;;;;;;;;;;;;;5016526;28;20242;-27
2022/09/16 09:14:02;;;;;;;;;;;;;;;;;;5016755;28;19918;-27
2022/09/16 09:16:28;;;;;;;;;;;;;;;;;;5016831;28;19979;-27
2022/09/16 09:18:54;;;;;;;;;;;;;;;;;;5017037;28;19909;-27
2022/09/16 09:21:20;;;;;;;;;;;;;;;;;;5016509;28;19917;-27
2022/09/16 09:23:46;;;;;;;;;;;;;;;;;;5016663;28;19971;-27
2022/09/16 09:26:12;;;;;;;;;;;;;;;;;;5015419;28;20406;-27
2022/09/16 09:28:38;;;;;;;;;;;;;;;;;;5015406;28;19917;-27
2022/09/16 09:31:04;;;;;;;;;;;;;;;;;;5016281;28;19918;-27
2022/09/16 09:33:30;;;;;;;;;;;;;;;;;;5016366;28;19967;-27
2022/09/16 09:35:56;;;;;;;;;;;;;;;;;;5016123;28;20004;-27
2022/09/16 09:38:22;;;;;;;;;;;;;;;;;;5016135;28;19945;-27
2022/09/16 09:40:49;;;;;;;;;;;;;;;;;;5016106;28;20014;-28
2022/09/16 09:43:15;;;;;;;;;;;;;;;;;;5016310;28;19921;-27
2022/09/16 09:45:41;;;;;;;;;;;;;;;;;;5015932;28;19918;-27
2022/09/16 09:48:08;;;;;;;;;;;;;;;;;;5016196;28;19909;-28
2022/09/16 09:50:42;;;;;;;;;;;;;;;;;;5009851;28;19920;-22
2022/09/16 09:53:08;;;;;;;;;;;;;;;;;;5008799;28;19914;-23
2022/09/16 09:55:34;;;;;;;;;;;;;;;;;;5009119;28;19910;-26
2022/09/16 09:58:00;;;;;;;;;;;;;;;;;;5009035;28;19944;-23
2022/09/16 10:00:26;;;;;;;;;;;;;;;;;;5009179;28;20324;-23
2022/09/16 10:02:52;;;;;;;;;;;;;;;;;;5008789;28;20275;-24
2022/09/16 10:05:19;;;;;;;;;;;;;;;;;;5009100;28;19920;-24
2022/09/16 10:07:45;;;;;;;;;;;;;;;;;;5008751;28;19920;-26
2022/09/16 10:10:10;;;;;;;;;;;;;;;;;;5009406;28;19917;-24
2022/09/16 10:12:36;;;;;;;;;;;;;;;;;;5008633;28;19936;-24
2022/09/16 10:15:02;;;;;;;;;;;;;;;;;;5008947;28;19913;-23
2022/09/16 10:17:28;;;;;;;;;;;;;;;;;;5008863;28;19913;-26
2022/09/16 10:19:54;;;;;;;;;;;;;;;;;;5009343;28;19929;-24
2022/09/16 10:22:20;;;;;;;;;;;;;;;;;;5008382;28;19914;-23
2022/09/16 10:24:53;;;;;;;;;;;;;;;;;;5008791;28;19949;-23
2022/09/16 10:27:19;;;;;;;;;;;;;;;;;;5007615;28;19948;-23
2022/09/16 10:29:45;;;;;;;;;;;;;;;;;;5008577;28;19956;-24
2022/09/16 10:32:11;;;;;;;;;;;;;;;;;;5008314;28;20221;-24
2022/09/16 10:34:37;;;;;;;;;;;;;;;;;;5008336;28;20000;-24
2022/09/16 10:37:04;;;;;;;;;;;;;;;;;;5008530;28;20309;-25
2022/09/16 10:39:31;;;;;;;;;;;;;;;;;;5008111;28;19918;-23
2022/09/16 10:41:57;;;;;;;;;;;;;;;;;;5008568;28;19984;-23
2022/09/16 10:44:23;;;;;;;;;;;;;;;;;;5008437;28;19922;-23
2022/09/16 10:46:49;;;;;;;;;;;;;;;;;;5008407;28;20264;-24
2022/09/16 10:49:15;;;;;;;;;;;;;;;;;;5007872;28;19922;-24
2022/09/16 10:51:43;;;;;;;;;;;;;;;;;;5007082;28;19924;-23
2022/09/16 10:54:09;;;;;;;;;;;;;;;;;;5008314;28;19910;-23
2022/09/16 10:56:35;;;;;;;;;;;;;;;;;;5008052;28;19971;-23
2022/09/16 10:59:02;;;;;;;;;;;;;;;;;;5007002;28;19917;-23
2022/09/16 11:01:28;;;;;;;;;;;;;;;;;;4998094;28;19914;-23
2022/09/16 11:03:54;;;;;;;;;;;;;;;;;;4994904;28;19940;-25
2022/09/16 11:06:20;;;;;;;;;;;;;;;;;;4994975;28;19914;-23
2022/09/16 11:08:45;;;;;;;;;;;;;;;;;;4994807;28;19922;-23
2022/09/16 11:11:11;;;;;;;;;;;;;;;;;;4995034;28;20403;-23
2022/09/16 11:13:37;;;;;;;;;;;;;;;;;;4993694;28;20301;-24
2022/09/16 11:16:03;;;;;;;;;;;;;;;;;;4994670;28;20005;-24
2022/09/16 11:18:29;;;;;;;;;;;;;;;;;;4994678;28;19992;-25
2022/09/16 11:20:55;;;;;;;;;;;;;;;;;;4994878;28;19914;-23
2022/09/16 11:23:22;;;;;;;;;;;;;;;;;;4994465;28;19937;-23
2022/09/16 11:25:48;;;;;;;;;;;;;;;;;;4994555;28;20012;-23
2022/09/16 11:28:14;;;;;;;;;;;;;;;;;;4994396;28;19949;-23
2022/09/16 11:30:40;;;;;;;;;;;;;;;;;;4994421;28;20012;-24
2022/09/16 11:33:06;;;;;;;;;;;;;;;;;;4994820;28;19910;-23
2022/09/16 11:35:33;;;;;;;;;;;;;;;;;;4994678;28;19917;-26
2022/09/16 11:37:59;;;;;;;;;;;;;;;;;;4994258;28;19920;-23
2022/09/16 11:40:25;;;;;;;;;;;;;;;;;;4994745;28;19914;-23
2022/09/16 11:42:51;;;;;;;;;;;;;;;;;;4994085;28;19939;-23
2022/09/16 11:45:17;;;;;;;;;;;;;;;;;;4994361;28;19910;-23
2022/09/16 11:47:43;;;;;;;;;;;;;;;;;;4994221;28;19925;-23
2022/09/16 11:50:09;;;;;;;;;;;;;;;;;;4993972;28;19928;-23
2022/09/16 11:52:35;;;;;;;;;;;;;;;;;;4994365;28;19914;-24
2022/09/16 11:55:01;;;;;;;;;;;;;;;;;;4994069;28;19961;-23
2022/09/16 11:57:27;;;;;;;;;;;;;;;;;;4994596;28;19921;-23
2022/09/16 11:59:53;;;;;;;;;;;;;;;;;;4994470;28;20302;-24
2022/09/16 12:02:19;;;;;;;;;;;;;;;;;;4994215;28;19913;-23
2022/09/16 12:04:45;;;;;;;;;;;;;;;;;;4994279;28;19957;-23
2022/09/16 12:07:11;;;;;;;;;;;;;;;;;;4994821;28;19921;-25
2022/09/16 12:09:38;;;;;;;;;;;;;;;;;;4994314;28;19921;-25
2022/09/16 12:12:04;;;;;;;;;;;;;;;;;;4993092;28;19914;-23
2022/09/16 12:14:30;;;;;;;;;;;;;;;;;;4993910;28;19997;-23
2022/09/16 12:16:56;;;;;;;;;;;;;;;;;;4994083;28;19910;-23
2022/09/16 12:19:22;;;;;;;;;;;;;;;;;;4994421;28;19979;-26
2022/09/16 12:21:48;;;;;;;;;;;;;;;;;;4993806;28;20328;-23
2022/09/16 12:24:15;;;;;;;;;;;;;;;;;;4994361;28;19948;-23
2022/09/16 12:26:41;;;;;;;;;;;;;;;;;;4993806;28;19917;-23
2022/09/16 12:29:07;;;;;;;;;;;;;;;;;;4994134;28;20012;-23
2022/09/16 12:31:33;;;;;;;;;;;;;;;;;;4994133;28;19914;-23
2022/09/16 12:33:59;;;;;;;;;;;;;;;;;;4994034;28;20257;-24
2022/09/16 12:36:25;;;;;;;;;;;;;;;;;;4993707;28;19925;-24
2022/09/16 12:38:51;;;;;;;;;;;;;;;;;;4994453;28;19910;-25
2022/09/16 12:41:17;;;;;;;;;;;;;;;;;;4993918;28;19914;-23
2022/09/16 12:43:43;;;;;;;;;;;;;;;;;;4993602;28;20325;-24
2022/09/16 12:46:09;;;;;;;;;;;;;;;;;;4994050;28;19913;-24
2022/09/16 12:48:35;;;;;;;;;;;;;;;;;;4993128;28;19918;-26
2022/09/16 12:51:01;;;;;;;;;;;;;;;;;;4993962;28;20004;-24
2022/09/16 12:53:27;;;;;;;;;;;;;;;;;;4993526;28;19918;-24
2022/09/16 12:55:53;;;;;;;;;;;;;;;;;;4993571;28;19929;-24
2022/09/16 12:58:19;;;;;;;;;;;;;;;;;;4993573;28;19933;-23
2022/09/16 13:00:46;;;;;;;;;;;;;;;;;;4993091;28;20348;-24
2022/09/16 13:03:12;;;;;;;;;;;;;;;;;;4993405;28;19953;-23
2022/09/16 13:05:38;;;;;;;;;;;;;;;;;;4993421;28;19914;-23
2022/09/16 13:08:04;;;;;;;;;;;;;;;;;;4993097;28;19925;-23
2022/09/16 13:10:30;;;;;;;;;;;;;;;;;;4993558;28;19922;-23
2022/09/16 13:12:56;;;;;;;;;;;;;;;;;;4993185;28;20268;-24
2022/09/16 13:15:22;;;;;;;;;;;;;;;;;;4993525;28;19971;-24
2022/09/16 13:17:51;;;;;;;;;;;;;;;;;;4993021;28;20307;-23
2022/09/16 13:20:18;;;;;;;;;;;;;;;;;;4993788;28;20222;-23
2022/09/16 13:22:44;;;;;;;;;;;;;;;;;;4993271;28;19921;-24
2022/09/16 13:25:10;;;;;;;;;;;;;;;;;;4992653;28;19914;-23
2022/09/16 13:27:36;;;;;;;;;;;;;;;;;;4993021;28;19986;-25
2022/09/16 13:30:02;;;;;;;;;;;;;;;;;;4993134;28;20005;-25
2022/09/16 13:32:28;;;;;;;;;;;;;;;;;;4992886;28;19910;-23
2022/09/16 13:34:53;;;;;;;;;;;;;;;;;;4993090;28;19918;-23
2022/09/16 13:37:19;;;;;;;;;;;;;;;;;;4992932;28;20356;-23
2022/09/16 13:39:45;;;;;;;;;;;;;;;;;;4992842;28;20056;-23
2022/09/16 13:42:11;;;;;;;;;;;;;;;;;;4992981;28;19910;-27
2022/09/16 13:44:38;;;;;;;;;;;;;;;;;;4993027;28;20318;-24
2022/09/16 13:47:04;;;;;;;;;;;;;;;;;;4992696;28;19926;-25
2022/09/16 13:49:30;;;;;;;;;;;;;;;;;;4992465;28;19932;-24
2022/09/16 13:51:56;;;;;;;;;;;;;;;;;;4992845;28;19914;-23
2022/09/16 13:54:22;;;;;;;;;;;;;;;;;;4991700;28;19910;-26
2022/09/16 13:56:48;;;;;;;;;;;;;;;;;;4992829;28;19918;-23
2022/09/16 13:59:14;;;;;;;;;;;;;;;;;;4992475;28;19914;-23
2022/09/16 14:01:40;;;;;;;;;;;;;;;;;;4992758;28;19956;-24
2022/09/16 14:04:06;;;;;;;;;;;;;;;;;;4992397;28;19909;-26
2022/09/16 14:06:32;;;;;;;;;;;;;;;;;;4992921;28;20363;-23
2022/09/16 14:08:58;;;;;;;;;;;;;;;;;;4992638;28;19957;-23
2022/09/16 14:11:24;;;;;;;;;;;;;;;;;;4993054;28;19921;-24
2022/09/16 14:13:50;;;;;;;;;;;;;;;;;;4992375;28;19953;-23
2022/09/16 14:16:16;;;;;;;;;;;;;;;;;;4992670;28;19914;-24
2022/09/16 14:18:42;;;;;;;;;;;;;;;;;;4992626;28;19921;-23
2022/09/16 14:21:08;;;;;;;;;;;;;;;;;;4992774;28;19997;-23
2022/09/16 14:23:34;;;;;;;;;;;;;;;;;;4992169;28;19910;-24
2022/09/16 14:26:00;;;;;;;;;;;;;;;;;;4992220;28;19924;-23
2022/09/16 14:28:26;;;;;;;;;;;;;;;;;;4992033;28;19913;-24
2022/09/16 14:30:52;;;;;;;;;;;;;;;;;;4992187;28;19914;-23
2022/09/16 14:33:18;;;;;;;;;;;;;;;;;;4992124;28;19921;-23
2022/09/16 14:35:44;;;;;;;;;;;;;;;;;;4992917;28;19924;-23
2022/09/16 14:38:10;;;;;;;;;;;;;;;;;;4996019;28;19914;-23
2022/09/16 14:40:36;;;;;;;;;;;;;;;;;;4995389;28;19925;-23
2022/09/16 14:43:02;;;;;;;;;;;;;;;;;;4995507;28;19957;-23
2022/09/16 14:45:29;;;;;;;;;;;;;;;;;;4995679;28;19968;-23
2022/09/16 14:47:55;;;;;;;;;;;;;;;;;;4995604;28;19967;-23
2022/09/16 14:50:21;;;;;;;;;;;;;;;;;;4995036;28;20339;-23
2022/09/16 14:52:47;;;;;;;;;;;;;;;;;;4995455;28;20252;-23
2022/09/16 14:55:14;;;;;;;;;;;;;;;;;;4995689;28;19914;-25
2022/09/16 14:57:40;;;;;;;;;;;;;;;;;;4995438;28;20303;-23
2022/09/16 15:00:08;;;;;;;;;;;;;;;;;;4995243;28;19922;-23
2022/09/16 15:02:34;;;;;;;;;;;;;;;;;;4995177;28;19940;-24
2022/09/16 15:05:00;;;;;;;;;;;;;;;;;;4995554;28;19910;-24
2022/09/16 15:07:26;;;;;;;;;;;;;;;;;;4995005;28;20013;-23
2022/09/16 15:09:52;;;;;;;;;;;;;;;;;;4995161;28;19924;-25
2022/09/16 15:12:18;;;;;;;;;;;;;;;;;;4995130;28;19914;-27
2022/09/16 15:14:44;;;;;;;;;;;;;;;;;;4994955;28;19918;-25
2022/09/16 15:17:10;;;;;;;;;;;;;;;;;;4995241;28;19959;-23
2022/09/16 15:19:36;;;;;;;;;;;;;;;;;;4995499;28;19914;-24
2022/09/16 15:22:02;;;;;;;;;;;;;;;;;;4994795;28;19925;-24
2022/09/16 15:24:30;;;;;;;;;;;;;;;;;;4994888;28;20384;-24
2022/09/16 15:26:56;;;;;;;;;;;;;;;;;;4994746;28;20261;-24
2022/09/16 15:29:22;;;;;;;;;;;;;;;;;;4994610;28;19922;-24
2022/09/16 15:31:49;;;;;;;;;;;;;;;;;;4994571;28;19924;-24
2022/09/16 15:34:17;;;;;;;;;;;;;;;;;;4995161;28;19920;-25
2022/09/16 15:36:43;;;;;;;;;;;;;;;;;;4994584;28;19925;-24
2022/09/16 15:39:09;;;;;;;;;;;;;;;;;;4994537;28;19910;-23
2022/09/16 15:41:35;;;;;;;;;;;;;;;;;;4995055;28;19925;-24
2022/09/16 15:44:01;;;;;;;;;;;;;;;;;;4994394;28;19909;-25
2022/09/16 15:46:27;;;;;;;;;;;;;;;;;;4994702;28;19925;-23
2022/09/16 15:48:54;;;;;;;;;;;;;;;;;;4994150;28;19929;-24
2022/09/16 15:51:20;;;;;;;;;;;;;;;;;;4994599;28;19914;-24
2022/09/16 15:53:46;;;;;;;;;;;;;;;;;;4994345;28;19971;-24
2022/09/16 15:56:12;;;;;;;;;;;;;;;;;;4994323;28;19943;-25
2022/09/16 15:58:38;;;;;;;;;;;;;;;;;;4994308;28;20291;-22
2022/09/16 16:01:04;;;;;;;;;;;;;;;;;;4994215;28;19922;-23
2022/09/16 16:03:30;;;;;;;;;;;;;;;;;;4994146;28;19924;-25
2022/09/16 16:05:56;;;;;;;;;;;;;;;;;;4994437;28;19924;-23
2022/09/16 16:08:22;;;;;;;;;;;;;;;;;;4994486;28;20277;-26
2022/09/16 16:10:48;;;;;;;;;;;;;;;;;;4994241;28;20008;-23
2022/09/16 16:13:14;;;;;;;;;;;;;;;;;;4994305;28;20054;-22
2022/09/16 16:15:40;;;;;;;;;;;;;;;;;;4994298;28;19909;-22
2022/09/16 16:18:06;;;;;;;;;;;;;;;;;;4994219;28;19914;-24
2022/09/16 16:20:33;;;;;;;;;;;;;;;;;;4994277;28;19925;-22
2022/09/16 16:22:59;;;;;;;;;;;;;;;;;;4993795;28;19916;-23
2022/09/16 16:25:25;;;;;;;;;;;;;;;;;;4994757;28;19918;-24
2022/09/16 16:27:51;;;;;;;;;;;;;;;;;;4993920;28;19921;-24
2022/09/16 16:30:18;;;;;;;;;;;;;;;;;;4993835;28;19914;-22
2022/09/16 16:32:44;;;;;;;;;;;;;;;;;;4993743;28;19914;-23
2022/09/16 16:35:10;;;;;;;;;;;;;;;;;;4994056;28;19920;-23
2022/09/16 16:37:36;;;;;;;;;;;;;;;;;;4994320;28;19956;-22